Pagina principale
METAR-TAF:

METAR-TAF

Aeroporti :

Roma, Italia

Aeroporto di Roma-Urbe

latitudine: 41-57N, longitudine: 012-30E, altezza: 18 m

Osservazione

Il bollettino è stato emesso 9 ore e 20 minuti fa, alle 15:50 UTC
Vento 7 kt da ovest/sud-ovest, variando fra sud/sud-ovest e ovest
Temperature 14°C
Umidità 82%
Pressione 1013 hPa
Visibilità: 7000 m
Nubi sparse ad un'altezza di 1500 ft
Nuvoloso ad un'altezza di 3000 ft

METAR: LIRU 161550Z 24007KT 210V270 7000 SCT015 BKN030 14/11 Q1013

Ora: 02:10 (01:10 UTC)

Previsione

Il bollettino è stato emesso 11 ore e 10 minuti fa, alle 14:00 UTC
Previsione valida dal 16 alle 15 UTC al 16 alle 24 UTC
Vento 13 kt da ovest/sud-ovest
Visibilità 10 km o più
Nubi sparse ad un'altezza di 2000 ft

TAF: LIRU 161400Z 1615/1624 24013KT 9999 SCT020

Osservazioni e previsioni meteorologiche di più di 4000 aeroporti (messaggi METAR e TAF).

Le stazioni disponibili sono rappresentate dai dischi gialli e rossi sulla carta.

Puntare il mouse per vedere il nome della stazione.

Clicca sopra per visualizzare le osservazioni e previsioni meteorologiche.

Per cambiare la mappa : fare clic sui pulsanti verdi con una croce nera per ingrandire, il pulsante verde con un trattino per diminuire, o sulla freccia verde per le mappe adiacenti.


METAR-TAF: